Time;durP1;ratioP1;P1;durP2;ratioP2;P2;SDS_P1;SDS_P2;PMS_P1;PMS_P2;Temp;Humidity;BMP_temperature;BMP_pressure;BME280_temperature;BME280_humidity;BME280_pressure;Samples;Min_cycle;Max_cycle;Signal;HPM_P1;HPM_P2
2022/10/14 00:00:35;;;;;;;32.58;22.50;;;12.10;99.90;;;;;;6043930;23;20040;-87
2022/10/14 00:03:01;;;;;;;28.17;19.40;;;12.00;99.90;;;;;;6067114;23;20025;-87
2022/10/14 00:05:26;;;;;;;29.02;20.17;;;12.00;99.90;;;;;;6043707;23;20050;-87
2022/10/14 00:07:52;;;;;;;32.63;21.42;;;11.90;99.90;;;;;;6043926;23;20019;-87
2022/10/14 00:10:18;;;;;;;32.00;21.25;;;11.90;99.90;;;;;;6068695;23;20021;-87
2022/10/14 00:12:44;;;;;;;30.35;20.80;;;11.90;99.90;;;;;;6068320;23;20090;-86
2022/10/14 00:15:10;;;;;;;31.83;21.67;;;11.80;99.90;;;;;;6067283;23;20010;-88
2022/10/14 00:17:36;;;;;;;193.43;29.17;;;11.80;99.90;;;;;;6043956;23;20149;-87
2022/10/14 00:20:02;;;;;;;148.18;24.75;;;11.80;99.90;;;;;;6044246;23;20044;-87
2022/10/14 00:22:28;;;;;;;151.48;24.73;;;11.80;99.90;;;;;;6067260;23;20018;-87
2022/10/14 00:24:53;;;;;;;71.32;22.48;;;12.10;99.90;;;;;;6043819;23;20090;-87
2022/10/14 00:27:19;;;;;;;112.65;23.83;;;11.80;99.90;;;;;;6043776;23;20029;-87
2022/10/14 00:29:45;;;;;;;136.10;23.30;;;11.80;99.90;;;;;;6041274;23;20030;-87
2022/10/14 00:32:11;;;;;;;84.47;20.15;;;11.80;99.90;;;;;;6043955;23;20021;-87
2022/10/14 00:34:36;;;;;;;31.23;18.73;;;11.80;99.90;;;;;;6043285;23;20018;-87
2022/10/14 00:37:02;;;;;;;41.42;18.60;;;11.80;99.90;;;;;;6044172;23;20069;-88
2022/10/14 00:39:28;;;;;;;45.92;18.17;;;11.90;99.90;;;;;;6044068;23;20510;-87
2022/10/14 00:41:54;;;;;;;60.58;20.33;;;11.80;99.90;;;;;;6044510;23;20506;-87
2022/10/14 00:44:19;;;;;;;92.45;21.55;;;11.90;99.90;;;;;;6043661;23;20021;-87
2022/10/14 00:46:47;;;;;;;110.95;21.33;;;11.80;99.90;;;;;;6066263;23;20465;-87
2022/10/14 00:49:19;;;;;;;141.85;21.02;;;11.80;99.90;;;;;;6042981;23;20018;-87
2022/10/14 00:51:52;;;;;;;89.43;20.40;;;11.80;99.90;;;;;;6044958;23;20239;-87
2022/10/14 00:54:22;;;;;;;250.13;26.70;;;11.80;99.90;;;;;;6067100;23;20046;-87
2022/10/14 00:56:49;;;;;;;49.17;18.05;;;11.90;99.90;;;;;;6067572;23;20014;-88
2022/10/14 00:59:15;;;;;;;72.55;19.10;;;11.70;99.90;;;;;;6043233;23;20349;-87
2022/10/14 01:01:41;;;;;;;55.67;17.92;;;11.70;99.90;;;;;;6066271;23;20022;-87
2022/10/14 01:04:07;;;;;;;44.60;16.52;;;10.80;99.90;;;;;;6043730;23;20521;-87
2022/10/14 01:06:39;;;;;;;54.45;16.98;;;11.60;99.90;;;;;;6043066;23;20014;-87
2022/10/14 01:09:20;;;;;;;41.47;15.90;;;11.60;99.90;;;;;;6067440;23;20467;-87
2022/10/14 01:12:28;;;;;;;25.20;15.57;;;11.60;99.90;;;;;;6068199;23;20010;-87
2022/10/14 01:15:14;;;;;;;24.98;15.30;;;11.50;99.90;;;;;;5924697;24;20021;-87
2022/10/14 01:18:08;;;;;;;33.45;15.45;;;11.50;99.90;;;;;;5925402;24;20040;-87
2022/10/14 01:21:08;;;;;;;93.25;17.35;;;11.50;99.90;;;;;;6041652;23;20052;-87
2022/10/14 01:23:51;;;;;;;67.78;16.55;;;11.40;99.90;;;;;;6043613;23;20495;-87
2022/10/14 01:26:23;;;;;;;57.58;13.63;;;11.40;99.90;;;;;;6067367;23;20018;-87
2022/10/14 01:28:51;;;;;;;43.05;14.30;;;11.40;99.90;;;;;;6066426;23;20139;-87
2022/10/14 01:31:22;;;;;;;209.18;21.58;;;11.30;99.90;;;;;;6067912;23;20017;-87
2022/10/14 01:33:53;;;;;;;92.10;16.33;;;11.40;99.90;;;;;;6042467;23;20018;-87
2022/10/14 01:36:31;;;;;;;154.07;17.13;;;11.30;99.90;;;;;;6067103;23;20085;-87
2022/10/14 01:39:07;;;;;;;37.15;14.10;;;11.30;99.90;;;;;;6044053;23;20409;-87
2022/10/14 01:41:38;;;;;;;313.90;25.60;;;11.30;99.90;;;;;;6045067;23;20078;-87
2022/10/14 01:44:09;;;;;;;52.33;13.93;;;11.30;99.90;;;;;;6043754;23;20019;-87
2022/10/14 01:46:39;;;;;;;60.67;14.48;;;11.30;99.90;;;;;;6067059;23;20019;-87
2022/10/14 01:49:18;;;;;;;62.97;14.05;;;11.20;99.90;;;;;;6046972;23;20014;-87
2022/10/14 01:51:49;;;;;;;103.10;16.17;;;11.90;99.90;;;;;;6073948;23;20014;-86
2022/10/14 01:54:25;;;;;;;182.48;19.45;;;11.10;99.90;;;;;;6067966;23;20081;-86
2022/10/14 01:56:53;;;;;;;97.85;15.65;;;11.10;99.90;;;;;;6048867;23;20486;-87
2022/10/14 01:59:21;;;;;;;72.57;13.30;;;11.10;99.90;;;;;;6046248;23;20014;-87
2022/10/14 02:01:47;;;;;;;55.85;13.13;;;11.10;99.90;;;;;;6043355;23;20046;-86
2022/10/14 02:04:20;;;;;;;38.50;11.73;;;11.10;99.90;;;;;;6041942;23;20014;-86
2022/10/14 02:06:56;;;;;;;122.18;15.15;;;11.10;99.90;;;;;;6042745;23;20042;-86
2022/10/14 02:09:34;;;;;;;41.50;11.68;;;11.00;99.90;;;;;;6042721;23;20018;-86
2022/10/14 02:12:35;;;;;;;103.15;14.02;;;11.00;99.90;;;;;;6043729;23;20018;-86
2022/10/14 02:15:03;;;;;;;79.10;12.50;;;10.90;99.90;;;;;;6066741;23;20026;-86
2022/10/14 02:17:31;;;;;;;189.48;16.85;;;10.90;99.90;;;;;;6067002;23;20018;-86
2022/10/14 02:20:04;;;;;;;29.42;10.45;;;10.90;99.90;;;;;;6067074;23;20025;-86
2022/10/14 02:22:36;;;;;;;75.40;12.38;;;10.90;99.90;;;;;;6042839;23;20026;-86
2022/10/14 02:25:26;;;;;;;57.05;11.98;;;10.80;99.90;;;;;;6042961;23;20033;-86
2022/10/14 02:27:53;;;;;;;83.70;11.52;;;10.80;99.90;;;;;;6066286;23;20018;-85
2022/10/14 02:30:20;;;;;;;69.15;11.68;;;11.70;99.90;;;;;;6042931;23;20014;-86
2022/10/14 02:32:48;;;;;;;58.28;11.15;;;10.70;99.90;;;;;;6042583;23;20432;-86
2022/10/14 02:35:17;;;;;;;51.78;10.27;;;10.60;99.90;;;;;;6066641;23;20039;-85
2022/10/14 02:37:45;;;;;;;121.93;14.45;;;10.60;99.90;;;;;;6065867;23;20018;-85
2022/10/14 02:40:16;;;;;;;19.65;10.00;;;10.60;99.90;;;;;;6043114;23;20437;-85
2022/10/14 02:42:42;;;;;;;49.80;11.48;;;10.50;99.90;;;;;;6043015;23;20483;-85
2022/10/14 02:45:09;;;;;;;64.65;12.30;;;10.50;99.90;;;;;;6043283;23;20018;-86
2022/10/14 02:47:35;;;;;;;82.82;12.32;;;10.50;99.90;;;;;;6042290;23;20043;-85
2022/10/14 02:50:01;;;;;;;67.00;10.55;;;10.50;99.90;;;;;;6042925;23;20220;-85
2022/10/14 02:52:26;;;;;;;135.00;12.88;;;10.50;99.90;;;;;;6041784;23;20089;-85
2022/10/14 02:54:52;;;;;;;66.03;10.90;;;10.50;99.90;;;;;;6042985;23;20015;-85
2022/10/14 02:57:18;;;;;;;40.70;10.20;;;10.50;99.90;;;;;;6019187;23;20053;-85
2022/10/14 02:59:43;;;;;;;43.65;9.52;;;10.50;99.90;;;;;;6042652;23;20082;-84
2022/10/14 03:02:09;;;;;;;106.93;11.38;;;10.50;99.90;;;;;;5996087;23;20460;-85
2022/10/14 03:04:35;;;;;;;39.10;8.60;;;10.50;99.90;;;;;;6042707;23;20460;-85
2022/10/14 03:07:01;;;;;;;36.42;8.00;;;10.50;99.90;;;;;;6043134;23;20067;-85
2022/10/14 03:09:27;;;;;;;51.67;8.52;;;10.50;99.90;;;;;;6065490;23;20018;-85
2022/10/14 03:11:52;;;;;;;207.75;16.38;;;10.70;99.90;;;;;;6043082;23;20018;-85
2022/10/14 03:14:18;;;;;;;95.93;12.20;;;10.40;99.90;;;;;;6042892;23;20014;-85
2022/10/14 03:16:44;;;;;;;51.80;8.32;;;10.40;99.90;;;;;;6090381;23;20471;-84
2022/10/14 03:19:09;;;;;;;37.05;7.55;;;10.40;99.90;;;;;;6018954;23;20341;-84
2022/10/14 03:21:35;;;;;;;56.60;8.07;;;10.40;99.90;;;;;;6043271;23;20467;-84
2022/10/14 03:24:01;;;;;;;45.70;8.07;;;10.40;99.90;;;;;;6042401;23;20059;-84
2022/10/14 03:26:28;;;;;;;61.15;9.38;;;10.30;99.90;;;;;;6043110;23;20018;-84
2022/10/14 03:28:53;;;;;;;44.83;9.60;;;10.40;99.90;;;;;;6042738;23;20053;-84
2022/10/14 03:31:19;;;;;;;68.50;9.93;;;10.40;99.90;;;;;;6064943;23;20085;-84
2022/10/14 03:33:45;;;;;;;92.45;9.68;;;10.30;99.90;;;;;;6042775;23;20141;-84
2022/10/14 03:36:11;;;;;;;55.17;8.43;;;10.30;99.90;;;;;;6066871;23;20015;-84
2022/10/14 03:38:36;;;;;;;64.60;9.23;;;10.60;99.90;;;;;;6042486;23;20022;-84
2022/10/14 03:41:02;;;;;;;35.45;8.00;;;10.30;99.90;;;;;;6042183;23;20022;-84
2022/10/14 03:43:29;;;;;;;65.43;9.85;;;10.30;99.90;;;;;;6042456;23;20380;-85
2022/10/14 03:45:54;;;;;;;40.10;7.57;;;10.30;99.90;;;;;;6066303;23;20038;-85
2022/10/14 03:48:20;;;;;;;45.72;8.32;;;10.30;99.90;;;;;;6019079;23;20022;-84
2022/10/14 03:50:46;;;;;;;26.30;7.63;;;10.30;99.90;;;;;;6066449;23;20476;-85
2022/10/14 03:53:13;;;;;;;50.92;8.98;;;10.50;99.90;;;;;;6066290;23;20062;-85
2022/10/14 03:55:39;;;;;;;65.80;9.23;;;10.30;99.90;;;;;;6066631;23;20014;-85
2022/10/14 03:58:05;;;;;;;73.47;10.13;;;10.30;99.90;;;;;;6042265;23;20097;-85
2022/10/14 04:00:31;;;;;;;34.63;8.38;;;10.30;99.90;;;;;;6042866;23;20127;-84
2022/10/14 04:02:57;;;;;;;33.60;8.05;;;10.30;99.90;;;;;;6042205;23;20018;-85
2022/10/14 04:05:22;;;;;;;29.40;7.93;;;10.30;99.90;;;;;;6066504;23;20192;-85
2022/10/14 04:07:48;;;;;;;34.78;8.20;;;10.30;99.90;;;;;;6066984;23;20432;-85
2022/10/14 04:10:14;;;;;;;90.47;11.80;;;10.70;99.90;;;;;;6042787;23;20440;-85
2022/10/14 04:12:40;;;;;;;58.85;9.40;;;10.40;99.90;;;;;;6043163;23;20397;-84
2022/10/14 04:15:09;;;;;;;64.43;10.30;;;10.40;99.90;;;;;;6063981;23;20053;-85
2022/10/14 04:17:35;;;;;;;27.65;8.50;;;10.40;99.90;;;;;;6044794;23;20022;-85
2022/10/14 04:20:00;;;;;;;39.63;8.32;;;10.40;99.90;;;;;;6067815;23;20029;-85
2022/10/14 04:22:26;;;;;;;40.00;9.13;;;10.40;99.90;;;;;;6067614;23;20018;-85
2022/10/14 04:24:52;;;;;;;43.95;10.02;;;10.40;99.90;;;;;;5997668;23;20065;-85
2022/10/14 04:27:18;;;;;;;36.28;9.13;;;10.40;99.90;;;;;;6069682;23;20015;-85
2022/10/14 04:29:43;;;;;;;40.38;10.10;;;10.40;99.90;;;;;;6044038;23;20014;-85
2022/10/14 04:32:09;;;;;;;78.38;11.40;;;10.50;99.90;;;;;;6044643;23;20325;-84
2022/10/14 04:34:35;;;;;;;41.65;10.57;;;10.50;99.90;;;;;;6043906;23;20010;-85
2022/10/14 04:37:00;;;;;;;25.63;10.57;;;10.50;99.90;;;;;;6044420;23;20470;-85
2022/10/14 04:39:26;;;;;;;54.30;12.23;;;10.50;99.90;;;;;;6067545;23;20353;-85
2022/10/14 04:41:52;;;;;;;52.72;12.52;;;10.50;99.90;;;;;;6067342;23;20203;-85
2022/10/14 04:44:17;;;;;;;130.23;16.77;;;10.60;99.90;;;;;;6043541;23;20019;-84
2022/10/14 04:46:43;;;;;;;38.97;11.52;;;10.60;99.90;;;;;;6041309;23;20078;-84
2022/10/14 04:49:09;;;;;;;50.38;12.32;;;10.70;99.90;;;;;;6042664;23;20010;-84
2022/10/14 04:51:35;;;;;;;31.92;11.07;;;10.60;99.90;;;;;;6043600;23;20014;-84
2022/10/14 04:54:00;;;;;;;53.08;13.30;;;10.60;99.90;;;;;;6042895;23;20018;-85
2022/10/14 04:56:26;;;;;;;25.85;11.05;;;10.70;99.90;;;;;;6043793;23;20321;-84
2022/10/14 04:58:52;;;;;;;43.05;12.40;;;10.70;99.90;;;;;;6067063;23;20110;-85
2022/10/14 05:01:17;;;;;;;30.85;12.15;;;10.70;99.90;;;;;;6042837;23;20014;-84
2022/10/14 05:03:43;;;;;;;24.63;10.90;;;10.80;99.90;;;;;;6043080;23;20495;-85
2022/10/14 05:06:09;;;;;;;26.60;11.68;;;11.00;99.90;;;;;;6044320;23;20017;-85
2022/10/14 05:08:35;;;;;;;100.95;14.18;;;10.80;99.90;;;;;;6091874;23;20053;-85
2022/10/14 05:11:01;;;;;;;43.83;12.13;;;10.80;99.90;;;;;;6044213;23;20022;-85
2022/10/14 05:13:28;;;;;;;35.55;11.95;;;10.80;99.90;;;;;;6067847;23;20010;-85
2022/10/14 05:15:54;;;;;;;30.17;9.10;;;10.70;99.90;;;;;;6043775;23;20433;-85
2022/10/14 05:18:20;;;;;;;36.08;9.02;;;10.70;99.90;;;;;;6044362;23;20144;-85
2022/10/14 05:20:46;;;;;;;46.15;9.68;;;10.70;99.90;;;;;;6067979;23;20142;-85
2022/10/14 05:23:11;;;;;;;50.80;9.65;;;10.70;99.90;;;;;;6067828;23;20452;-85
2022/10/14 05:25:37;;;;;;;39.60;8.43;;;10.60;99.90;;;;;;6067399;23;20014;-84
2022/10/14 05:28:03;;;;;;;63.97;10.35;;;10.60;99.90;;;;;;6067838;23;20025;-85
2022/10/14 05:30:29;;;;;;;55.05;10.25;;;10.70;99.90;;;;;;6040594;23;20330;-85
2022/10/14 05:32:55;;;;;;;30.45;8.63;;;10.60;99.90;;;;;;6042679;23;20540;-85
2022/10/14 05:35:21;;;;;;;25.05;8.30;;;10.60;99.90;;;;;;6035808;23;20057;-84
2022/10/14 05:37:47;;;;;;;44.38;9.38;;;10.60;99.90;;;;;;6064530;23;20030;-85
2022/10/14 05:40:13;;;;;;;42.63;9.85;;;10.60;99.90;;;;;;5989469;23;20023;-84
2022/10/14 05:42:39;;;;;;;41.63;9.95;;;10.60;99.90;;;;;;6013364;23;20038;-84
2022/10/14 05:45:05;;;;;;;34.15;10.88;;;10.60;99.90;;;;;;6013132;23;20114;-85
2022/10/14 05:47:31;;;;;;;28.52;9.98;;;10.60;99.90;;;;;;6063366;23;20141;-85
2022/10/14 05:49:58;;;;;;;55.13;11.70;;;10.70;99.90;;;;;;6014755;23;20481;-85
2022/10/14 05:52:24;;;;;;;89.53;12.60;;;10.70;99.90;;;;;;6012007;23;20066;-84
2022/10/14 05:54:49;;;;;;;32.15;10.43;;;10.70;99.90;;;;;;6062723;23;20066;-85
2022/10/14 05:57:15;;;;;;;30.77;10.38;;;10.70;99.90;;;;;;6063344;23;20057;-84
2022/10/14 05:59:41;;;;;;;28.17;10.02;;;10.60;99.90;;;;;;6061438;23;20023;-85
2022/10/14 06:02:08;;;;;;;27.55;9.07;;;10.70;99.90;;;;;;6037456;23;20500;-87
2022/10/14 06:04:34;;;;;;;25.90;10.60;;;10.70;99.90;;;;;;6036863;23;20018;-87
2022/10/14 06:06:59;;;;;;;46.38;11.80;;;10.70;99.90;;;;;;6062169;23;20488;-87
2022/10/14 06:09:25;;;;;;;31.08;10.98;;;10.70;99.90;;;;;;6062171;23;20019;-87
2022/10/14 06:11:51;;;;;;;28.67;11.05;;;10.70;99.90;;;;;;6060482;23;20019;-86
2022/10/14 06:14:16;;;;;;;33.33;10.70;;;10.70;99.90;;;;;;6056953;23;20018;-87
2022/10/14 06:16:42;;;;;;;35.20;10.82;;;10.70;99.90;;;;;;6059424;23;20250;-87
2022/10/14 06:19:08;;;;;;;35.50;11.73;;;10.70;99.90;;;;;;6012766;23;20015;-87
2022/10/14 06:21:34;;;;;;;39.92;12.50;;;10.70;99.90;;;;;;6013539;23;20057;-87
2022/10/14 06:23:59;;;;;;;31.35;11.57;;;10.70;99.90;;;;;;6014117;23;20437;-86
2022/10/14 06:26:25;;;;;;;30.27;11.85;;;10.80;99.90;;;;;;6014711;23;20019;-86
2022/10/14 06:28:51;;;;;;;58.13;14.30;;;10.80;99.90;;;;;;6014780;23;20098;-86
2022/10/14 06:31:17;;;;;;;39.58;13.63;;;10.80;99.90;;;;;;6061624;23;20015;-87
2022/10/14 06:33:42;;;;;;;35.72;12.60;;;10.80;99.90;;;;;;6014791;23;20050;-86
2022/10/14 06:36:09;;;;;;;47.40;13.68;;;10.80;99.90;;;;;;6038737;23;20496;-88
2022/10/14 06:38:34;;;;;;;28.23;12.30;;;10.80;99.90;;;;;;6062241;23;20061;-86
2022/10/14 06:41:00;;;;;;;38.47;13.02;;;10.80;99.90;;;;;;6061497;23;20023;-87
2022/10/14 06:43:26;;;;;;;52.60;13.73;;;10.80;99.90;;;;;;6014569;23;20029;-87
2022/10/14 06:45:52;;;;;;;45.60;14.38;;;10.80;99.90;;;;;;6036279;23;20026;-87
2022/10/14 06:48:17;;;;;;;32.17;12.82;;;10.80;99.90;;;;;;6009890;23;20022;-87
2022/10/14 06:50:43;;;;;;;64.00;16.13;;;10.80;99.90;;;;;;6037430;23;20025;-86
2022/10/14 06:53:09;;;;;;;69.30;16.42;;;10.90;99.90;;;;;;6060585;23;20015;-86
2022/10/14 06:55:35;;;;;;;56.72;14.45;;;10.90;99.90;;;;;;6014505;23;20018;-86
2022/10/14 06:58:00;;;;;;;44.42;14.90;;;10.90;99.90;;;;;;6014337;23;20074;-87
2022/10/14 07:00:26;;;;;;;70.40;17.00;;;11.20;99.90;;;;;;6060288;23;20081;-87
2022/10/14 07:02:52;;;;;;;69.53;17.15;;;11.00;99.90;;;;;;6010389;23;20093;-86
2022/10/14 07:05:18;;;;;;;87.22;20.27;;;11.00;99.90;;;;;;6061539;23;20270;-86
2022/10/14 07:07:44;;;;;;;59.70;18.98;;;11.00;99.90;;;;;;6038106;23;20073;-87
2022/10/14 07:10:10;;;;;;;68.03;18.02;;;11.10;99.90;;;;;;6061784;23;20504;-87
2022/10/14 07:12:35;;;;;;;51.53;18.38;;;11.60;99.90;;;;;;6038273;23;20051;-87
2022/10/14 07:15:01;;;;;;;64.97;19.02;;;11.10;99.90;;;;;;6038066;23;20068;-88
2022/10/14 07:17:27;;;;;;;76.72;19.67;;;11.10;99.90;;;;;;6037725;23;20022;-87
2022/10/14 07:19:52;;;;;;;64.18;18.88;;;11.10;99.90;;;;;;6013761;23;20475;-88
2022/10/14 07:22:18;;;;;;;65.07;19.67;;;11.10;99.90;;;;;;6036241;23;20023;-87
2022/10/14 07:24:44;;;;;;;78.28;19.95;;;11.80;99.90;;;;;;6013449;23;20068;-87
2022/10/14 07:27:10;;;;;;;57.00;19.75;;;11.20;99.90;;;;;;6062230;23;20098;-87
2022/10/14 07:29:35;;;;;;;49.90;17.02;;;11.20;99.90;;;;;;6035492;23;20011;-87
2022/10/14 07:32:02;;;;;;;51.58;17.88;;;11.20;99.90;;;;;;6037438;23;20069;-87
2022/10/14 07:34:28;;;;;;;49.55;17.52;;;11.20;99.90;;;;;;6038339;23;20386;-87
2022/10/14 07:36:54;;;;;;;47.80;18.60;;;11.20;99.90;;;;;;6013662;23;20082;-87
2022/10/14 07:39:20;;;;;;;54.97;18.20;;;11.20;99.90;;;;;;6039783;23;20453;-87
2022/10/14 07:41:47;;;;;;;66.68;19.75;;;11.30;99.90;;;;;;6041384;23;20093;-87
2022/10/14 07:44:13;;;;;;;56.20;18.45;;;11.30;99.90;;;;;;6041854;23;20014;-86
2022/10/14 07:46:42;;;;;;;61.40;17.45;;;11.30;99.90;;;;;;6067265;23;20408;-87
2022/10/14 07:49:11;;;;;;;57.17;17.13;;;11.30;99.90;;;;;;6064509;23;20030;-87
2022/10/14 07:51:38;;;;;;;59.65;17.70;;;11.30;99.90;;;;;;6067100;23;20146;-87
2022/10/14 07:54:10;;;;;;;54.30;18.00;;;11.40;99.90;;;;;;6067137;23;20047;-87
2022/10/14 07:56:38;;;;;;;46.88;17.60;;;11.40;99.90;;;;;;6065447;23;20011;-87
2022/10/14 07:59:04;;;;;;;51.72;17.77;;;11.40;99.90;;;;;;6090275;23;20011;-87
2022/10/14 08:01:30;;;;;;;41.95;16.73;;;11.40;99.90;;;;;;6065935;23;20421;-87
2022/10/14 08:03:56;;;;;;;59.83;19.02;;;11.40;99.90;;;;;;6067032;23;20040;-87
2022/10/14 08:06:21;;;;;;;59.00;20.10;;;11.50;99.90;;;;;;6068506;23;20011;-87
2022/10/14 08:08:47;;;;;;;50.67;19.45;;;11.50;99.90;;;;;;6089999;23;20022;-87
2022/10/14 08:11:25;;;;;;;44.00;18.95;;;11.50;99.90;;;;;;6043020;23;20018;-87
2022/10/14 08:13:51;;;;;;;47.13;18.55;;;11.50;99.90;;;;;;6091215;23;20014;-88
2022/10/14 08:16:22;;;;;;;51.30;19.83;;;11.60;99.90;;;;;;6068025;23;20472;-88
2022/10/14 08:18:48;;;;;;;49.47;20.23;;;11.60;99.90;;;;;;6043564;23;20397;-88
2022/10/14 08:21:16;;;;;;;51.92;21.02;;;11.70;99.90;;;;;;6067866;23;20015;-88
2022/10/14 08:23:42;;;;;;;50.67;19.38;;;11.70;99.90;;;;;;6066825;23;20026;-89
2022/10/14 08:26:19;;;;;;;56.47;21.25;;;11.90;99.90;;;;;;6066009;23;20022;-88
2022/10/14 08:28:44;;;;;;;49.70;20.10;;;11.80;99.90;;;;;;6091849;23;20022;-88
2022/10/14 08:31:10;;;;;;;42.22;19.38;;;11.80;99.90;;;;;;6066700;23;20467;-89
2022/10/14 08:33:36;;;;;;;50.97;21.60;;;11.80;99.90;;;;;;6093612;23;20078;-89
2022/10/14 08:36:02;;;;;;;55.70;23.02;;;11.90;99.90;;;;;;6066335;23;20044;-88
2022/10/14 08:38:27;;;;;;;44.58;20.52;;;11.90;99.90;;;;;;6066218;23;20041;-88
2022/10/14 08:41:11;;;;;;;49.88;21.25;;;11.90;99.90;;;;;;6066835;23;20026;-88
2022/10/14 08:44:18;;;;;;;43.20;20.33;;;12.00;99.90;;;;;;6091208;23;20059;-89
2022/10/14 08:47:08;;;;;;;37.95;19.35;;;12.00;99.90;;;;;;6066898;23;20070;-88
2022/10/14 08:49:43;;;;;;;44.92;20.50;;;12.00;99.90;;;;;;6066135;23;20021;-89
2022/10/14 08:52:35;;;;;;;40.13;20.02;;;12.00;99.90;;;;;;6091640;23;20010;-89
2022/10/14 08:55:13;;;;;;;41.65;19.45;;;12.10;99.90;;;;;;6065313;23;20015;-88
2022/10/14 08:57:47;;;;;;;43.15;21.48;;;12.10;99.90;;;;;;6066075;23;20021;-91
2022/10/14 09:00:14;;;;;;;45.60;21.25;;;12.10;99.90;;;;;;6065766;23;20401;-90
2022/10/14 09:02:50;;;;;;;41.25;21.00;;;12.10;99.90;;;;;;6067052;23;20014;-90
2022/10/14 09:05:19;;;;;;;47.20;21.85;;;12.20;99.90;;;;;;6042794;23;20014;-90
2022/10/14 09:07:48;;;;;;;43.70;21.90;;;12.20;99.90;;;;;;6065872;23;20102;-90
2022/10/14 09:10:24;;;;;;;39.72;20.65;;;12.20;99.90;;;;;;6066508;23;20014;-91
2022/10/14 09:12:52;;;;;;;38.85;20.80;;;12.30;99.90;;;;;;6067115;23;20014;-91
2022/10/14 09:15:36;;;;;;;40.10;20.92;;;12.40;99.90;;;;;;6092235;23;20015;-90
2022/10/14 09:18:12;;;;;;;40.50;20.40;;;12.40;99.90;;;;;;6067735;23;20053;-90
2022/10/14 09:20:40;;;;;;;37.28;19.98;;;12.40;99.90;;;;;;6090269;23;20019;-91
2022/10/14 09:23:17;;;;;;;37.47;19.23;;;12.60;99.90;;;;;;6067936;23;20073;-90
2022/10/14 09:26:09;;;;;;;35.42;17.98;;;12.60;99.90;;;;;;6090127;23;20018;-90
2022/10/14 09:28:42;;;;;;;36.42;18.98;;;12.60;99.90;;;;;;6065937;23;20487;-90
2022/10/14 09:31:11;;;;;;;31.00;17.48;;;12.50;99.90;;;;;;6067072;23;20015;-90
2022/10/14 09:33:38;;;;;;;30.15;17.45;;;12.50;99.90;;;;;;6090903;23;20021;-90
2022/10/14 09:36:17;;;;;;;34.92;18.63;;;12.50;99.90;;;;;;6066970;23;20010;-89
2022/10/14 09:38:46;;;;;;;37.00;19.67;;;12.50;99.90;;;;;;6066675;23;20018;-89
2022/10/14 09:41:14;;;;;;;34.58;18.88;;;12.50;99.90;;;;;;6066184;23;20029;-90
2022/10/14 09:44:24;;;;;;;35.35;19.52;;;12.60;99.90;;;;;;6042303;23;20018;-89
2022/10/14 09:46:58;;;;;;;36.58;19.40;;;12.60;99.90;;;;;;6090470;23;20078;-90
2022/10/14 09:49:40;;;;;;;34.95;19.65;;;12.70;99.90;;;;;;6066372;23;20470;-90
2022/10/14 09:52:07;;;;;;;37.53;20.40;;;12.70;99.90;;;;;;6066173;23;20041;-90
2022/10/14 09:54:33;;;;;;;35.03;19.25;;;12.80;99.90;;;;;;6041880;23;20015;-90
2022/10/14 09:57:06;;;;;;;38.15;21.77;;;12.80;99.90;;;;;;6067018;23;20333;-89
2022/10/14 09:59:33;;;;;;;;;;;12.90;99.90;;;;;;6066093;23;20018;-91
2022/10/14 10:02:04;;;;;;;35.58;19.83;;;13.00;99.90;;;;;;6064507;23;19924;-89
2022/10/14 10:04:40;;;;;;;36.40;20.13;;;13.00;99.90;;;;;;6066236;23;20389;-90
2022/10/14 10:07:25;;;;;;;37.38;19.83;;;13.10;99.90;;;;;;6067622;23;20464;-89
2022/10/14 10:10:00;;;;;;;39.08;20.27;;;13.20;99.90;;;;;;6091810;23;20014;-89
2022/10/14 10:12:32;;;;;;;36.50;20.48;;;13.20;99.90;;;;;;6067656;23;20053;-89
2022/10/14 10:15:04;;;;;;;33.58;20.00;;;13.20;99.90;;;;;;6091009;23;20085;-89
2022/10/14 10:17:37;;;;;;;36.70;20.40;;;13.30;99.90;;;;;;6067839;23;20014;-89
2022/10/14 10:20:44;;;;;;;;;;;13.30;99.90;;;;;;6067660;23;20017;-89
2022/10/14 10:23:36;;;;;;;31.45;17.90;;;13.30;99.90;;;;;;6090262;23;19913;-89
2022/10/14 10:26:27;;;;;;;31.77;18.17;;;13.30;99.90;;;;;;6110208;23;20098;-90
2022/10/14 10:28:56;;;;;;;32.55;17.50;;;13.30;99.90;;;;;;6067061;23;20018;-89
2022/10/14 10:31:49;;;;;;;30.00;17.40;;;13.30;99.90;;;;;;6067436;23;20010;-90
2022/10/14 10:34:52;;;;;;;33.38;18.75;;;13.40;99.90;;;;;;6090611;23;20012;-89
2022/10/14 10:37:25;;;;;;;29.70;17.92;;;13.40;99.90;;;;;;6064406;23;20015;-89
2022/10/14 10:40:15;;;;;;;29.60;17.20;;;13.40;99.90;;;;;;6066025;23;20048;-89
2022/10/14 10:43:24;;;;;;;31.40;17.33;;;13.40;99.90;;;;;;6115375;23;20520;-89
2022/10/14 10:45:56;;;;;;;30.58;16.67;;;13.50;99.90;;;;;;6088580;23;20014;-89
2022/10/14 10:48:40;;;;;;;32.95;17.15;;;13.40;99.90;;;;;;6091105;23;20029;-89
2022/10/14 10:51:12;;;;;;;33.55;16.98;;;13.50;99.90;;;;;;6112897;23;20019;-88
2022/10/14 10:54:01;;;;;;;32.13;17.63;;;13.50;99.90;;;;;;6065537;23;20045;-89
2022/10/14 10:56:37;;;;;;;29.65;16.63;;;13.50;99.90;;;;;;6065682;23;20010;-88
2022/10/14 10:59:25;;;;;;;31.15;16.60;;;13.60;99.90;;;;;;6089150;23;20023;-89
2022/10/14 11:02:14;;;;;;;29.88;16.42;;;13.60;99.90;;;;;;6065896;23;20018;-89
2022/10/14 11:04:56;;;;;;;31.08;16.67;;;13.60;99.90;;;;;;6064924;23;20029;-88
2022/10/14 11:13:35;;;;;;;30.70;15.18;;;13.60;99.90;;;;;;6090239;23;20019;-89
2022/10/14 11:16:17;;;;;;;26.38;13.95;;;13.60;99.90;;;;;;6066222;23;20125;-89
2022/10/14 11:18:49;;;;;;;27.70;14.15;;;13.50;99.90;;;;;;6090388;23;20117;-88
2022/10/14 11:21:33;;;;;;;25.27;12.95;;;13.50;99.90;;;;;;6091156;23;20019;-86
2022/10/14 11:24:04;;;;;;;25.52;13.45;;;13.50;99.90;;;;;;6091511;23;20018;-85
2022/10/14 11:26:46;;;;;;;26.60;13.13;;;13.50;99.90;;;;;;6091591;23;20014;-85
2022/10/14 11:29:18;;;;;;;27.63;12.65;;;13.50;99.90;;;;;;6090923;23;20443;-86
2022/10/14 11:32:07;;;;;;;27.75;13.90;;;13.50;99.90;;;;;;6092053;23;20385;-86
2022/10/14 11:34:43;;;;;;;24.55;12.43;;;13.50;99.90;;;;;;6091790;23;20041;-86
2022/10/14 11:37:27;;;;;;;25.15;12.80;;;13.50;99.90;;;;;;6091220;23;20402;-85
2022/10/14 11:40:10;;;;;;;26.10;12.90;;;13.50;99.90;;;;;;6091409;23;20022;-85
2022/10/14 11:43:23;;;;;;;26.52;12.93;;;13.50;99.90;;;;;;6066158;23;20070;-86
2022/10/14 11:46:09;;;;;;;32.50;14.23;;;13.50;99.90;;;;;;5980927;23;20055;-84
2022/10/14 11:48:54;;;;;;;25.23;13.20;;;13.50;99.90;;;;;;6066565;23;20760;-84
2022/10/14 11:51:41;;;;;;;29.05;13.85;;;13.50;99.90;;;;;;6091615;23;20349;-85
2022/10/14 11:54:10;;;;;;;30.23;13.95;;;13.50;99.90;;;;;;6091623;23;20424;-85
2022/10/14 11:56:57;;;;;;;28.02;13.50;;;13.60;99.90;;;;;;6067051;23;20053;-85
2022/10/14 11:59:38;;;;;;;24.52;12.32;;;13.60;99.90;;;;;;6091086;23;20089;-84
2022/10/14 12:02:39;;;;;;;27.40;13.32;;;13.60;99.90;;;;;;6091262;23;20515;-86
2022/10/14 12:05:08;;;;;;;25.48;12.43;;;13.60;99.90;;;;;;6047158;23;20086;-85
2022/10/14 12:07:58;;;;;;;22.60;12.10;;;13.60;99.90;;;;;;6090831;23;20070;-84
2022/10/14 12:10:37;;;;;;;24.08;11.70;;;13.60;99.90;;;;;;6066297;23;20405;-85
2022/10/14 12:13:09;;;;;;;20.65;11.45;;;13.60;99.90;;;;;;6088997;23;20098;-85
2022/10/14 12:15:39;;;;;;;24.67;12.30;;;13.60;99.90;;;;;;6068528;23;20070;-85
2022/10/14 12:18:05;;;;;;;24.08;12.05;;;13.60;99.90;;;;;;6092656;23;20042;-85
2022/10/14 12:20:47;;;;;;;23.20;12.05;;;13.60;99.90;;;;;;6068361;23;20263;-85
2022/10/14 12:23:23;;;;;;;27.25;12.93;;;13.60;99.90;;;;;;6092079;23;20346;-85
2022/10/14 12:26:05;;;;;;;21.75;11.77;;;13.60;99.90;;;;;;6069019;23;20021;-85
2022/10/14 12:28:33;;;;;;;22.93;12.70;;;13.60;99.90;;;;;;6068202;23;20137;-86
2022/10/14 12:31:36;;;;;;;21.92;11.15;;;13.60;99.90;;;;;;6067446;23;20696;-86
2022/10/14 12:34:13;;;;;;;23.95;12.80;;;13.60;99.90;;;;;;6081069;23;20081;-85
2022/10/14 12:36:42;;;;;;;22.48;12.18;;;13.60;99.90;;;;;;6091615;23;20115;-85
2022/10/14 12:39:32;;;;;;;21.65;12.40;;;13.60;99.90;;;;;;6068122;23;20053;-86
2022/10/14 12:42:02;;;;;;;23.75;13.00;;;13.60;99.90;;;;;;6024725;23;20018;-85
2022/10/14 12:44:50;;;;;;;28.17;14.43;;;13.60;99.90;;;;;;6014213;23;20033;-86
2022/10/14 12:47:18;;;;;;;26.92;13.50;;;13.60;99.90;;;;;;6039763;23;20434;-85
2022/10/14 12:49:49;;;;;;;25.55;14.48;;;13.50;99.90;;;;;;6014093;23;20090;-86
2022/10/14 12:52:22;;;;;;;27.52;15.45;;;13.60;99.90;;;;;;6015244;23;20377;-85
2022/10/14 12:54:48;;;;;;;;;;;13.60;99.90;;;;;;6040112;23;20014;-85